Time;durP1;ratioP1;P1;durP2;ratioP2;P2;SDS_P1;SDS_P2;PMS_P1;PMS_P2;Temp;Humidity;BMP_temperature;BMP_pressure;BME280_temperature;BME280_humidity;BME280_pressure;Samples;Min_cycle;Max_cycle;Signal;HPM_P1;HPM_P2
2022/07/27 00:01:53;;;;;;;2.05;0.40;;;28.10;38.50;;;;;;5041797;28;20095;-58
2022/07/27 00:04:20;;;;;;;2.83;0.08;;;28.10;38.50;;;;;;5044868;28;20059;-58
2022/07/27 00:06:48;;;;;;;1.13;0.38;;;28.10;38.60;;;;;;5044949;28;20037;-57
2022/07/27 00:09:15;;;;;;;2.20;0.10;;;28.10;38.70;;;;;;5045311;28;20519;-57
2022/07/27 00:11:42;;;;;;;0.25;0.10;;;28.10;38.70;;;;;;5041360;28;20124;-57
2022/07/27 00:14:10;;;;;;;0.77;0.10;;;28.00;38.70;;;;;;5042886;28;20127;-56
2022/07/27 00:16:38;;;;;;;1.40;0.20;;;28.00;38.80;;;;;;5045251;28;20499;-56
2022/07/27 00:19:05;;;;;;;2.30;0.10;;;28.00;38.90;;;;;;5045058;28;20037;-54
2022/07/27 00:21:32;;;;;;;0.52;0.10;;;28.00;39.00;;;;;;5041102;28;20041;-56
2022/07/27 00:23:59;;;;;;;0.50;0.10;;;28.00;39.00;;;;;;5041884;28;20045;-58
2022/07/27 00:26:26;;;;;;;0.80;0.10;;;28.00;39.10;;;;;;5041938;28;20045;-54
2022/07/27 00:28:53;;;;;;;3.67;0.10;;;28.00;39.20;;;;;;5044805;28;20091;-57
2022/07/27 00:31:21;;;;;;;1.85;0.20;;;28.00;39.20;;;;;;5041642;28;20883;-55
2022/07/27 00:33:49;;;;;;;0.60;0.10;;;28.00;39.20;;;;;;5043622;28;20118;-54
2022/07/27 00:36:16;;;;;;;3.35;0.52;;;27.90;39.30;;;;;;5044514;28;20123;-54
2022/07/27 00:38:43;;;;;;;2.95;0.10;;;27.90;39.20;;;;;;5044730;28;20533;-55
2022/07/27 00:41:10;;;;;;;0.90;0.20;;;27.90;39.30;;;;;;5040544;28;20119;-53
2022/07/27 00:43:54;;;;;;;4.07;0.20;;;27.90;39.40;;;;;;5044389;28;20048;-56
2022/07/27 00:46:24;;;;;;;0.20;0.10;;;27.90;39.40;;;;;;5042703;28;20568;-56
2022/07/27 00:48:51;;;;;;;2.00;0.10;;;27.90;39.60;;;;;;5044146;28;20049;-57
2022/07/27 00:51:20;;;;;;;2.03;0.10;;;27.90;39.60;;;;;;5041507;28;20041;-57
2022/07/27 00:53:47;;;;;;;2.28;0.20;;;27.80;39.60;;;;;;5044238;28;20518;-58
2022/07/27 00:56:15;;;;;;;0.30;0.10;;;27.90;39.70;;;;;;5043856;28;20124;-57
2022/07/27 00:58:47;;;;;;;2.80;0.30;;;27.80;39.70;;;;;;5044486;28;20145;-58
2022/07/27 01:01:14;;;;;;;0.50;0.10;;;27.80;39.80;;;;;;5040981;28;20534;-58
2022/07/27 01:03:42;;;;;;;1.58;0.10;;;27.80;39.80;;;;;;5043450;28;20063;-58
2022/07/27 01:06:09;;;;;;;1.23;0.10;;;27.80;39.90;;;;;;5043980;28;20819;-56
2022/07/27 01:08:37;;;;;;;0.47;0.10;;;27.80;40.00;;;;;;5044241;28;20072;-57
2022/07/27 01:11:04;;;;;;;3.22;0.40;;;27.80;40.00;;;;;;5040102;28;20426;-58
2022/07/27 01:13:31;;;;;;;1.52;0.20;;;27.80;40.00;;;;;;5043462;28;20698;-58
2022/07/27 01:15:59;;;;;;;0.52;0.20;;;27.80;40.00;;;;;;5043733;28;20438;-58
2022/07/27 01:18:29;;;;;;;1.33;0.10;;;27.70;40.00;;;;;;5044030;28;20091;-57
2022/07/27 01:20:59;;;;;;;1.00;0.10;;;27.70;40.10;;;;;;5040272;28;20059;-59
2022/07/27 01:23:31;;;;;;;1.55;0.32;;;27.70;40.10;;;;;;5043292;28;20124;-57
2022/07/27 01:25:58;;;;;;;1.58;0.38;;;27.70;40.10;;;;;;5043245;28;20041;-54
2022/07/27 01:28:25;;;;;;;1.85;0.10;;;27.70;40.20;;;;;;5043296;28;20098;-55
2022/07/27 01:30:52;;;;;;;3.05;0.10;;;27.70;40.20;;;;;;5040565;28;20110;-57
2022/07/27 01:33:24;;;;;;;0.47;0.17;;;27.70;40.30;;;;;;5042947;28;20040;-58
2022/07/27 01:35:53;;;;;;;1.50;0.20;;;27.60;40.30;;;;;;5044296;28;20048;-57
2022/07/27 01:38:21;;;;;;;4.00;0.10;;;27.70;40.40;;;;;;5039364;28;20511;-58
2022/07/27 01:40:50;;;;;;;3.65;0.32;;;27.60;40.40;;;;;;5037123;28;20056;-58
2022/07/27 01:43:17;;;;;;;1.02;0.10;;;27.70;40.50;;;;;;5042198;28;20045;-59
2022/07/27 01:45:44;;;;;;;1.88;0.20;;;27.60;40.50;;;;;;5041922;28;20124;-58
2022/07/27 01:48:11;;;;;;;2.90;0.10;;;27.60;40.50;;;;;;5039929;28;20059;-56
2022/07/27 01:50:39;;;;;;;1.20;0.10;;;27.60;40.50;;;;;;5038548;28;20464;-55
2022/07/27 01:53:06;;;;;;;1.25;0.10;;;27.60;40.50;;;;;;5041478;28;20063;-55
2022/07/27 01:55:33;;;;;;;0.68;0.10;;;27.60;40.50;;;;;;5042688;28;20041;-56
2022/07/27 01:58:04;;;;;;;1.00;0.15;;;27.60;40.60;;;;;;5043355;28;20033;-57
2022/07/27 02:00:31;;;;;;;0.50;0.10;;;27.50;40.60;;;;;;5038542;28;20036;-59
2022/07/27 02:02:59;;;;;;;0.40;0.10;;;27.50;40.60;;;;;;5042172;28;20051;-58
2022/07/27 02:05:26;;;;;;;3.15;0.10;;;27.50;40.60;;;;;;5038495;28;20202;-59
2022/07/27 02:07:53;;;;;;;4.78;0.60;;;27.50;40.60;;;;;;5043011;28;20100;-56
2022/07/27 02:10:20;;;;;;;3.35;0.25;;;27.50;40.70;;;;;;5039742;28;20507;-58
2022/07/27 02:12:46;;;;;;;1.20;0.13;;;27.40;40.60;;;;;;5042012;28;20049;-60
2022/07/27 02:15:18;;;;;;;0.47;0.10;;;27.40;40.60;;;;;;5042270;28;20529;-57
2022/07/27 02:17:45;;;;;;;2.75;0.10;;;27.40;40.60;;;;;;5042917;28;20059;-58
2022/07/27 02:20:15;;;;;;;1.40;0.10;;;27.40;40.70;;;;;;5041503;28;20041;-58
2022/07/27 02:22:43;;;;;;;2.20;0.10;;;27.30;40.60;;;;;;5041125;28;20051;-57
2022/07/27 02:25:11;;;;;;;0.28;0.10;;;27.30;40.70;;;;;;5039711;28;20048;-57
2022/07/27 02:27:39;;;;;;;0.98;0.10;;;27.30;40.80;;;;;;5040007;28;20053;-58
2022/07/27 02:30:09;;;;;;;2.03;0.93;;;27.30;40.80;;;;;;5040512;28;20039;-57
2022/07/27 02:32:37;;;;;;;2.47;0.10;;;27.30;40.90;;;;;;5040059;28;20041;-56
2022/07/27 02:35:05;;;;;;;0.40;0.10;;;27.30;40.90;;;;;;5042741;28;20143;-55
2022/07/27 02:37:32;;;;;;;3.22;0.10;;;27.20;40.90;;;;;;5042105;28;20131;-58
2022/07/27 02:39:59;;;;;;;0.20;0.20;;;27.20;41.00;;;;;;5040148;28;20060;-57
2022/07/27 02:42:26;;;;;;;1.33;0.10;;;27.30;41.00;;;;;;5040285;28;20408;-57
2022/07/27 02:44:53;;;;;;;1.45;0.30;;;27.20;41.00;;;;;;5040169;28;20049;-55
2022/07/27 02:47:20;;;;;;;2.67;0.47;;;27.20;41.10;;;;;;5041681;28;20119;-56
2022/07/27 02:49:48;;;;;;;1.65;0.20;;;27.20;41.10;;;;;;5040518;28;20067;-58
2022/07/27 02:52:15;;;;;;;0.38;0.10;;;27.20;41.20;;;;;;5037373;28;20107;-58
2022/07/27 02:54:42;;;;;;;1.95;0.98;;;27.20;41.20;;;;;;5040637;28;20045;-58
2022/07/27 02:57:09;;;;;;;1.33;0.15;;;27.20;41.10;;;;;;5039082;28;20400;-57
2022/07/27 02:59:36;;;;;;;1.83;0.35;;;27.10;41.70;;;;;;5041834;28;20045;-57
2022/07/27 03:02:03;;;;;;;1.85;0.20;;;27.20;41.20;;;;;;5040326;28;20091;-56
2022/07/27 03:04:31;;;;;;;2.25;0.10;;;27.10;41.10;;;;;;5041986;28;20541;-58
2022/07/27 03:06:59;;;;;;;16.98;0.20;;;27.10;41.20;;;;;;5041770;28;20562;-58
2022/07/27 03:09:26;;;;;;;1.95;0.20;;;27.10;41.20;;;;;;5042299;28;20029;-56
2022/07/27 03:11:53;;;;;;;3.38;0.10;;;27.10;41.20;;;;;;5038644;28;20407;-58
2022/07/27 03:14:20;;;;;;;2.10;0.10;;;27.10;41.20;;;;;;5041812;28;20033;-57
2022/07/27 03:16:47;;;;;;;0.40;0.10;;;27.10;41.30;;;;;;5041890;28;20057;-56
2022/07/27 03:19:14;;;;;;;0.73;0.15;;;27.10;41.20;;;;;;5042324;28;20041;-56
2022/07/27 03:21:41;;;;;;;3.60;0.30;;;27.00;41.10;;;;;;5038438;28;20537;-59
2022/07/27 03:24:10;;;;;;;5.55;0.45;;;27.00;41.10;;;;;;5041851;28;20047;-58
2022/07/27 03:26:37;;;;;;;1.95;0.10;;;27.00;41.10;;;;;;5041954;28;20578;-59
2022/07/27 03:29:04;;;;;;;2.35;0.10;;;27.00;41.10;;;;;;5041910;28;20600;-59
2022/07/27 03:31:31;;;;;;;1.80;0.20;;;27.00;41.20;;;;;;5038597;28;20051;-58
2022/07/27 03:33:58;;;;;;;1.25;0.30;;;27.00;41.20;;;;;;5042045;28;20144;-55
2022/07/27 03:36:25;;;;;;;1.45;0.10;;;27.00;41.20;;;;;;5041179;28;20128;-58
2022/07/27 03:38:52;;;;;;;2.20;0.10;;;27.00;41.20;;;;;;5042113;28;20245;-58
2022/07/27 03:41:20;;;;;;;4.13;0.30;;;27.00;41.20;;;;;;5039042;28;20057;-59
2022/07/27 03:43:48;;;;;;;1.65;0.30;;;26.90;41.20;;;;;;5041550;28;20041;-58
2022/07/27 03:46:15;;;;;;;3.35;0.17;;;26.90;41.10;;;;;;5041670;28;20049;-58
2022/07/27 03:48:42;;;;;;;4.22;0.20;;;26.90;41.00;;;;;;5042517;28;20710;-58
2022/07/27 03:51:09;;;;;;;1.48;0.63;;;26.80;41.00;;;;;;5038526;28;20391;-58
2022/07/27 03:53:36;;;;;;;2.65;0.10;;;26.80;41.00;;;;;;5041965;28;20041;-57
2022/07/27 03:56:03;;;;;;;0.63;0.10;;;26.90;41.10;;;;;;5041213;28;20130;-57
2022/07/27 03:58:32;;;;;;;5.78;0.30;;;26.90;41.00;;;;;;5039694;28;20499;-59
2022/07/27 04:00:59;;;;;;;2.97;0.45;;;26.80;40.90;;;;;;5038577;28;20095;-56
2022/07/27 04:03:26;;;;;;;2.03;0.10;;;26.80;40.80;;;;;;5041746;28;20045;-56
2022/07/27 04:05:53;;;;;;;0.63;0.10;;;26.80;40.80;;;;;;5040263;28;20175;-57
2022/07/27 04:08:21;;;;;;;1.85;0.25;;;26.80;40.70;;;;;;5042060;28;20043;-57
2022/07/27 04:10:48;;;;;;;3.22;0.35;;;26.80;40.60;;;;;;5041877;28;20048;-56
2022/07/27 04:13:15;;;;;;;0.57;0.10;;;26.80;40.60;;;;;;5045075;28;20060;-58
2022/07/27 04:15:43;;;;;;;2.65;0.77;;;26.80;40.40;;;;;;5042642;28;20641;-57
2022/07/27 04:18:10;;;;;;;2.42;0.10;;;26.70;40.30;;;;;;5045603;28;20045;-57
2022/07/27 04:20:37;;;;;;;3.45;0.10;;;26.80;40.40;;;;;;5042105;28;20052;-57
2022/07/27 04:23:04;;;;;;;1.42;0.20;;;26.70;40.30;;;;;;5044486;28;20048;-59
2022/07/27 04:25:31;;;;;;;3.78;0.40;;;26.70;40.30;;;;;;5045001;28;20107;-56
2022/07/27 04:27:59;;;;;;;3.67;0.20;;;26.70;40.30;;;;;;5044844;28;20525;-58
2022/07/27 04:30:26;;;;;;;2.80;0.40;;;26.70;40.20;;;;;;5043427;28;20037;-57
2022/07/27 04:32:54;;;;;;;3.40;0.17;;;26.70;40.20;;;;;;5043324;28;20032;-58
2022/07/27 04:35:21;;;;;;;2.20;0.10;;;26.70;40.10;;;;;;5045204;28;20066;-57
2022/07/27 04:37:48;;;;;;;4.22;0.20;;;26.70;40.10;;;;;;5044842;28;20052;-55
2022/07/27 04:40:15;;;;;;;3.28;0.50;;;26.70;39.90;;;;;;5043767;28;20072;-58
2022/07/27 04:42:42;;;;;;;1.90;0.38;;;26.70;39.90;;;;;;5042799;28;20095;-58
2022/07/27 04:45:10;;;;;;;6.85;0.28;;;26.60;39.70;;;;;;5044605;28;20053;-59
2022/07/27 04:47:37;;;;;;;1.00;0.20;;;26.60;39.70;;;;;;5044512;28;20529;-57
2022/07/27 04:50:07;;;;;;;6.72;0.45;;;26.60;39.70;;;;;;5043645;28;20503;-58
2022/07/27 04:52:35;;;;;;;3.13;0.15;;;26.60;39.70;;;;;;5041819;28;20047;-58
2022/07/27 04:55:02;;;;;;;1.52;0.45;;;26.60;39.70;;;;;;5044772;28;20087;-59
2022/07/27 04:57:29;;;;;;;2.38;0.43;;;26.60;39.70;;;;;;5044361;28;20110;-59
2022/07/27 04:59:57;;;;;;;1.15;0.10;;;26.60;39.70;;;;;;5043152;28;20052;-59
2022/07/27 05:02:25;;;;;;;6.07;0.30;;;26.50;39.60;;;;;;5041138;28;20048;-60
2022/07/27 05:04:52;;;;;;;0.93;0.20;;;26.50;39.60;;;;;;5044287;28;20107;-56
2022/07/27 05:07:20;;;;;;;3.50;0.20;;;26.50;39.50;;;;;;5044556;28;20072;-56
2022/07/27 05:09:47;;;;;;;0.57;0.10;;;26.50;39.50;;;;;;5042672;28;20064;-58
2022/07/27 05:12:14;;;;;;;3.60;0.17;;;26.50;39.60;;;;;;5042807;28;20068;-55
2022/07/27 05:14:41;;;;;;;2.78;0.20;;;26.50;39.60;;;;;;5043896;28;20044;-57
2022/07/27 05:17:09;;;;;;;3.83;0.77;;;26.50;39.60;;;;;;5043840;28;20153;-57
2022/07/27 05:19:36;;;;;;;2.92;0.38;;;26.50;39.50;;;;;;5039878;28;20041;-57
2022/07/27 05:22:03;;;;;;;4.18;0.35;;;26.50;39.60;;;;;;5042012;28;20124;-57
2022/07/27 05:24:31;;;;;;;2.50;0.73;;;26.50;39.50;;;;;;5044236;28;20060;-54
2022/07/27 05:26:58;;;;;;;3.67;0.40;;;26.50;39.50;;;;;;5043862;28;20053;-55
2022/07/27 05:29:25;;;;;;;4.40;0.20;;;26.50;39.50;;;;;;5042118;28;20055;-56
2022/07/27 05:31:52;;;;;;;4.55;1.00;;;26.50;39.50;;;;;;5038818;28;20102;-58
2022/07/27 05:34:19;;;;;;;2.88;0.10;;;26.50;39.30;;;;;;5045123;28;20718;-56
2022/07/27 05:36:46;;;;;;;3.75;0.55;;;26.50;39.30;;;;;;5043694;28;20056;-56
2022/07/27 05:39:13;;;;;;;3.13;0.75;;;26.60;40.00;;;;;;5043648;28;20044;-56
2022/07/27 05:41:42;;;;;;;6.72;0.28;;;26.50;39.20;;;;;;5038665;28;20128;-53
2022/07/27 05:44:09;;;;;;;1.48;0.35;;;26.60;39.30;;;;;;5043544;28;20033;-54
2022/07/27 05:46:36;;;;;;;2.00;0.20;;;26.50;39.20;;;;;;5043481;28;20136;-56
2022/07/27 05:49:03;;;;;;;3.50;0.30;;;26.50;39.10;;;;;;5043419;28;20037;-57
2022/07/27 05:51:31;;;;;;;2.30;0.55;;;26.60;39.20;;;;;;5040513;28;20049;-59
2022/07/27 05:53:58;;;;;;;2.60;0.50;;;26.60;39.10;;;;;;5043318;28;20049;-57
2022/07/27 05:56:26;;;;;;;4.90;0.75;;;26.60;39.00;;;;;;5043064;28;20047;-56
2022/07/27 05:58:54;;;;;;;2.25;0.22;;;26.60;39.00;;;;;;5043036;28;20040;-57
2022/07/27 06:01:21;;;;;;;4.40;0.40;;;26.60;38.90;;;;;;5040177;28;20149;-57
2022/07/27 06:03:48;;;;;;;1.45;0.10;;;26.50;38.80;;;;;;5043350;28;20063;-57
2022/07/27 06:09:08;;;;;;;6.93;0.38;;;26.60;38.80;;;;;;4980205;28;20073;-57
2022/07/27 06:11:36;;;;;;;2.58;0.55;;;26.60;38.80;;;;;;4977166;28;20050;-58
2022/07/27 06:14:04;;;;;;;4.55;0.20;;;26.60;38.80;;;;;;4978683;28;20058;-59
2022/07/27 06:16:31;;;;;;;7.07;0.85;;;26.60;38.70;;;;;;4980381;28;20046;-58
2022/07/27 06:18:58;;;;;;;6.47;0.30;;;26.50;38.70;;;;;;4977792;28;20152;-56
2022/07/27 06:21:27;;;;;;;5.72;0.15;;;26.50;38.80;;;;;;4977644;28;20064;-58
2022/07/27 06:23:54;;;;;;;4.80;0.20;;;26.40;38.80;;;;;;4980682;28;20046;-56
2022/07/27 06:26:21;;;;;;;4.25;0.20;;;26.50;38.90;;;;;;4980324;28;20058;-57
2022/07/27 06:28:48;;;;;;;3.15;0.43;;;26.40;38.80;;;;;;4976478;28;20500;-57
2022/07/27 06:31:17;;;;;;;4.93;0.63;;;26.40;38.90;;;;;;4976383;28;20106;-58
2022/07/27 06:33:44;;;;;;;3.95;0.20;;;26.40;38.90;;;;;;4977453;28;20070;-57
2022/07/27 06:36:11;;;;;;;0.98;0.20;;;26.40;38.90;;;;;;4979786;28;20046;-58
2022/07/27 06:38:38;;;;;;;8.23;0.45;;;26.40;39.00;;;;;;4980392;28;20133;-58
2022/07/27 06:41:05;;;;;;;10.05;0.65;;;26.40;38.90;;;;;;4977859;28;20133;-56
2022/07/27 06:43:33;;;;;;;3.45;0.15;;;26.40;38.90;;;;;;4979794;28;20564;-56
2022/07/27 06:46:02;;;;;;;3.03;0.50;;;26.40;39.20;;;;;;5035878;28;20049;-55
2022/07/27 06:48:30;;;;;;;4.63;0.47;;;26.40;39.00;;;;;;5039217;28;20213;-52
2022/07/27 06:50:58;;;;;;;3.03;0.70;;;26.40;38.90;;;;;;5039874;28;20059;-65
2022/07/27 06:53:27;;;;;;;5.97;0.60;;;26.50;39.20;;;;;;5041186;28;20041;-63
2022/07/27 06:55:54;;;;;;;5.75;0.52;;;26.60;39.40;;;;;;5041954;28;20067;-64
2022/07/27 06:58:21;;;;;;;2.70;0.77;;;26.90;39.10;;;;;;5042468;28;20051;-62
2022/07/27 07:00:48;;;;;;;5.32;0.20;;;27.20;38.70;;;;;;5022054;28;20091;-63
2022/07/27 07:03:15;;;;;;;3.85;0.35;;;27.60;38.30;;;;;;5041758;28;20087;-63
2022/07/27 07:05:46;;;;;;;3.60;0.30;;;28.00;37.60;;;;;;5041968;28;20060;-62
2022/07/27 07:08:14;;;;;;;3.15;0.30;;;28.40;37.10;;;;;;5040300;28;20404;-64
2022/07/27 07:10:42;;;;;;;3.45;0.28;;;28.80;36.60;;;;;;5041306;28;20044;-66
2022/07/27 07:13:10;;;;;;;6.35;0.30;;;29.10;35.90;;;;;;5040477;28;20498;-65
2022/07/27 07:15:39;;;;;;;4.72;0.70;;;29.60;35.60;;;;;;5041861;28;20110;-63
2022/07/27 07:18:07;;;;;;;5.10;0.22;;;30.00;35.00;;;;;;5042855;28;20037;-60
2022/07/27 07:20:34;;;;;;;1.38;0.28;;;30.40;34.30;;;;;;5040931;28;20071;-59
2022/07/27 07:23:04;;;;;;;3.83;1.30;;;30.80;33.80;;;;;;5040241;28;20653;-60
2022/07/27 07:25:32;;;;;;;2.00;0.20;;;31.10;33.30;;;;;;5042356;28;20515;-59
2022/07/27 07:28:00;;;;;;;5.15;0.25;;;31.40;32.90;;;;;;5042338;28;20033;-61
2022/07/27 07:30:28;;;;;;;5.55;0.22;;;31.60;32.50;;;;;;5040343;28;20144;-56
2022/07/27 07:32:55;;;;;;;5.85;0.95;;;31.90;32.30;;;;;;5041538;28;20713;-65
2022/07/27 07:35:22;;;;;;;4.03;1.00;;;32.10;32.10;;;;;;5043846;28;20060;-55
2022/07/27 07:37:49;;;;;;;3.95;0.47;;;32.30;31.80;;;;;;5039598;28;20056;-56
2022/07/27 07:40:18;;;;;;;4.78;0.20;;;32.20;31.70;;;;;;5046708;28;20068;-55
2022/07/27 07:42:53;;;;;;;3.78;1.17;;;32.10;31.70;;;;;;5023620;28;20140;-58
2022/07/27 07:45:22;;;;;;;1.63;0.13;;;32.00;31.90;;;;;;5040637;28;20199;-55
2022/07/27 07:47:49;;;;;;;1.95;0.40;;;31.90;32.10;;;;;;5042704;28;21518;-51
2022/07/27 07:50:16;;;;;;;2.97;0.38;;;31.80;32.20;;;;;;5049910;28;20098;-61
2022/07/27 07:52:43;;;;;;;3.45;0.82;;;31.70;32.20;;;;;;5044065;28;20065;-68
2022/07/27 07:55:11;;;;;;;2.35;0.43;;;31.60;32.40;;;;;;5045483;28;20156;-68
2022/07/27 07:57:40;;;;;;;1.40;0.40;;;31.40;32.50;;;;;;5028217;28;20053;-67
2022/07/27 08:00:08;;;;;;;7.55;0.60;;;31.30;32.80;;;;;;5044405;28;20121;-66
2022/07/27 08:02:46;;;;;;;5.45;0.57;;;31.10;32.90;;;;;;5039933;28;20459;-65
2022/07/27 08:05:13;;;;;;;2.47;0.20;;;31.00;33.10;;;;;;5045741;28;20057;-65
2022/07/27 08:07:41;;;;;;;6.68;0.40;;;30.90;33.20;;;;;;5045269;28;20048;-61
2022/07/27 08:10:10;;;;;;;10.05;0.75;;;30.80;33.50;;;;;;5044548;28;20064;-60
2022/07/27 08:12:39;;;;;;;5.13;0.98;;;30.70;33.80;;;;;;5042192;28;20045;-60
2022/07/27 08:15:10;;;;;;;14.68;1.55;;;30.60;33.90;;;;;;5045711;28;20613;-57
2022/07/27 08:17:37;;;;;;;4.25;0.68;;;30.60;34.00;;;;;;5044441;28;20049;-65
2022/07/27 08:20:05;;;;;;;5.50;0.95;;;30.50;34.00;;;;;;5047239;28;21081;-64
2022/07/27 08:22:33;;;;;;;2.58;0.70;;;30.50;34.10;;;;;;5042545;28;20099;-65
2022/07/27 08:25:00;;;;;;;3.15;0.63;;;30.40;34.00;;;;;;5045461;28;20521;-61
2022/07/27 08:27:27;;;;;;;4.00;0.60;;;30.40;34.20;;;;;;5045533;28;20473;-61
2022/07/27 08:29:54;;;;;;;1.83;0.60;;;30.30;34.30;;;;;;5044002;28;20033;-62
2022/07/27 08:32:23;;;;;;;12.85;1.77;;;30.20;34.30;;;;;;5041084;28;20511;-53
2022/07/27 08:34:51;;;;;;;83.60;16.42;;;30.20;34.40;;;;;;5045542;28;20041;-57
2022/07/27 08:37:18;;;;;;;4.10;0.93;;;30.10;34.90;;;;;;5045457;28;20041;-56
2022/07/27 08:39:45;;;;;;;10.70;2.10;;;30.10;35.30;;;;;;5044745;28;20047;-58
2022/07/27 08:42:12;;;;;;;9.32;1.00;;;30.00;34.90;;;;;;5041013;28;20036;-60
2022/07/27 08:44:41;;;;;;;0.55;0.28;;;29.90;35.00;;;;;;5045524;28;20041;-64
2022/07/27 08:47:10;;;;;;;2.70;0.70;;;29.80;34.90;;;;;;5044880;28;20045;-63
2022/07/27 08:49:40;;;;;;;3.95;0.50;;;29.80;35.20;;;;;;5045090;28;20078;-70
2022/07/27 08:52:09;;;;;;;2.60;0.30;;;29.70;35.20;;;;;;5043920;28;20776;-66
2022/07/27 08:54:39;;;;;;;8.40;0.93;;;29.60;35.30;;;;;;5042215;28;20037;-59
2022/07/27 08:57:08;;;;;;;10.10;0.60;;;29.60;35.40;;;;;;5043845;28;20060;-57
2022/07/27 08:59:35;;;;;;;3.03;1.05;;;29.50;35.50;;;;;;5044820;28;20051;-62
2022/07/27 09:02:04;;;;;;;2.42;0.50;;;29.40;35.50;;;;;;5038391;28;20041;-59
2022/07/27 09:04:31;;;;;;;8.27;1.10;;;29.40;35.70;;;;;;5043572;28;20084;-58
2022/07/27 09:07:00;;;;;;;6.85;0.88;;;29.40;35.70;;;;;;5043994;28;20048;-61
2022/07/27 09:09:27;;;;;;;8.55;1.15;;;29.40;35.80;;;;;;5041130;28;20116;-60
2022/07/27 09:12:06;;;;;;;4.30;0.82;;;29.40;35.80;;;;;;5042155;28;20145;-60
2022/07/27 09:14:35;;;;;;;13.02;1.05;;;29.40;35.80;;;;;;5043705;28;20068;-60
2022/07/27 09:17:21;;;;;;;4.53;0.57;;;29.40;35.70;;;;;;5044675;28;20059;-62
2022/07/27 09:19:54;;;;;;;;;;;29.40;35.80;;;;;;5044903;28;20037;-61
2022/07/27 09:22:42;;;;;;;3.97;0.40;;;29.40;35.70;;;;;;5041325;28;19928;-62
2022/07/27 09:25:11;;;;;;;1.02;0.25;;;29.70;35.50;;;;;;5041346;28;20131;-61
2022/07/27 09:27:38;;;;;;;2.67;0.50;;;30.00;35.20;;;;;;5044092;28;20115;-61
2022/07/27 09:30:07;;;;;;;5.25;0.47;;;30.30;34.80;;;;;;5044172;28;20045;-60
2022/07/27 09:32:35;;;;;;;1.55;0.65;;;30.60;34.30;;;;;;5041189;28;20073;-62
2022/07/27 09:35:16;;;;;;;6.00;0.35;;;31.00;33.80;;;;;;5044548;28;20131;-60
2022/07/27 09:37:46;;;;;;;3.50;0.52;;;31.30;33.30;;;;;;5044949;28;20052;-57
2022/07/27 09:40:15;;;;;;;4.13;0.30;;;31.60;32.80;;;;;;5045326;28;20059;-61
2022/07/27 09:42:42;;;;;;;4.47;0.40;;;31.70;33.10;;;;;;5040626;28;20139;-62
2022/07/27 09:45:33;;;;;;;8.18;0.60;;;31.70;32.80;;;;;;5023850;28;20080;-63
2022/07/27 09:48:16;;;;;;;3.05;0.47;;;31.70;32.40;;;;;;5045039;28;20559;-60
2022/07/27 09:50:46;;;;;;;3.50;0.50;;;31.60;32.30;;;;;;5043777;28;20151;-62
2022/07/27 09:53:19;;;;;;;2.75;0.20;;;31.50;32.30;;;;;;5036527;28;20037;-55
2022/07/27 09:55:58;;;;;;;1.52;0.10;;;31.30;32.30;;;;;;5043734;28;20076;-60
2022/07/27 09:58:47;;;;;;;1.75;0.20;;;31.20;32.60;;;;;;5044573;28;20419;-65
2022/07/27 10:01:17;;;;;;;3.65;0.30;;;31.10;32.60;;;;;;5038982;28;20095;-64
2022/07/27 10:03:45;;;;;;;2.13;0.20;;;31.00;32.50;;;;;;5040560;28;20053;-61
2022/07/27 10:06:13;;;;;;;6.20;0.52;;;30.90;32.30;;;;;;5043039;28;20069;-64
2022/07/27 10:08:44;;;;;;;2.28;0.17;;;30.90;32.20;;;;;;5042918;28;20589;-57
2022/07/27 10:11:12;;;;;;;1.90;0.10;;;30.80;32.40;;;;;;5043955;28;20052;-61
2022/07/27 10:13:39;;;;;;;3.95;0.20;;;30.70;32.50;;;;;;5040395;28;20033;-62
2022/07/27 10:16:13;;;;;;;6.10;0.20;;;30.60;32.40;;;;;;5042052;28;20529;-64
2022/07/27 10:18:49;;;;;;;2.25;0.10;;;30.60;32.90;;;;;;5043944;28;20040;-62
2022/07/27 10:21:17;;;;;;;2.63;0.60;;;30.60;32.60;;;;;;5041729;28;20041;-64
2022/07/27 10:23:56;;;;;;;2.28;0.30;;;30.60;32.70;;;;;;5021665;28;20063;-56
2022/07/27 10:26:32;;;;;;;1.23;0.20;;;30.50;32.60;;;;;;5044075;28;20116;-59
2022/07/27 10:29:01;;;;;;;2.95;0.30;;;30.50;32.90;;;;;;5042729;28;20049;-61
2022/07/27 10:31:32;;;;;;;0.77;0.10;;;30.50;33.10;;;;;;5043743;28;20065;-65
2022/07/27 10:34:00;;;;;;;3.83;0.20;;;30.40;32.20;;;;;;5040219;28;20051;-66
2022/07/27 10:36:49;;;;;;;4.03;0.38;;;30.40;31.90;;;;;;5043779;28;20499;-59
2022/07/27 10:39:35;;;;;;;6.22;0.40;;;30.30;31.30;;;;;;5024706;28;20060;-61
2022/07/27 10:42:20;;;;;;;;;;;30.30;31.60;;;;;;5041557;28;20048;-59
2022/07/27 10:44:59;;;;;;;2.15;0.45;;;30.20;31.80;;;;;;5042542;28;20803;-59
2022/07/27 10:47:29;;;;;;;0.80;0.20;;;30.30;32.00;;;;;;5039248;28;20048;-60
2022/07/27 10:50:30;;;;;;;1.83;0.10;;;30.20;32.20;;;;;;5040977;28;20049;-64
2022/07/27 10:53:08;;;;;;;0.35;0.10;;;30.30;31.90;;;;;;5038691;28;20885;-66
2022/07/27 10:55:47;;;;;;;2.72;0.40;;;30.30;31.60;;;;;;5042890;28;20049;-60
2022/07/27 10:58:46;;;;;;;0.93;0.52;;;30.30;31.30;;;;;;5042020;28;20043;-62
2022/07/27 11:01:21;;;;;;;1.40;0.10;;;30.30;31.40;;;;;;5037259;28;20048;-62
2022/07/27 11:03:52;;;;;;;0.23;0.10;;;30.30;31.40;;;;;;5037763;28;20053;-62
2022/07/27 11:06:30;;;;;;;1.85;0.63;;;30.40;31.30;;;;;;5041868;28;20299;-64
2022/07/27 11:08:58;;;;;;;1.85;0.32;;;30.40;31.20;;;;;;5042349;28;20064;-61
2022/07/27 11:11:27;;;;;;;1.38;0.20;;;30.40;30.90;;;;;;5042754;28;20136;-58
2022/07/27 11:13:58;;;;;;;2.70;0.65;;;30.40;30.80;;;;;;5039028;28;20037;-60
2022/07/27 11:16:28;;;;;;;1.48;0.20;;;30.50;30.70;;;;;;5040833;28;20108;-62
2022/07/27 11:19:02;;;;;;;0.20;0.20;;;30.50;30.70;;;;;;5045097;28;20110;-59
2022/07/27 11:21:32;;;;;;;2.30;0.20;;;30.50;31.10;;;;;;5045351;28;20048;-60
2022/07/27 11:24:04;;;;;;;1.17;0.50;;;30.60;31.20;;;;;;5043239;28;20576;-59
2022/07/27 11:26:40;;;;;;;4.60;0.13;;;30.60;31.30;;;;;;5046513;28;20052;-61
2022/07/27 11:29:09;;;;;;;2.58;0.20;;;30.70;31.30;;;;;;5044079;28;20063;-60
2022/07/27 11:31:37;;;;;;;1.75;0.50;;;30.80;30.90;;;;;;5045756;28;20783;-59
2022/07/27 11:34:05;;;;;;;6.18;0.68;;;30.70;30.70;;;;;;5040960;28;20056;-62
2022/07/27 11:36:38;;;;;;;7.47;0.85;;;30.80;30.50;;;;;;5047237;28;20049;-64
2022/07/27 11:39:06;;;;;;;5.22;0.40;;;30.80;31.10;;;;;;5045490;28;20072;-62
2022/07/27 11:41:36;;;;;;;1.50;0.10;;;30.90;31.40;;;;;;5044793;28;20041;-66
2022/07/27 11:44:06;;;;;;;2.40;0.10;;;31.00;31.40;;;;;;5050163;28;20048;-65
2022/07/27 11:46:34;;;;;;;2.28;0.20;;;30.90;31.30;;;;;;5043185;28;20045;-65
2022/07/27 11:49:05;;;;;;;3.97;0.40;;;30.90;31.00;;;;;;5050006;28;20049;-67
2022/07/27 11:51:34;;;;;;;1.80;0.20;;;30.80;31.10;;;;;;5050635;28;20059;-65
2022/07/27 11:54:02;;;;;;;4.28;0.28;;;30.80;31.50;;;;;;5050312;28;20045;-66
2022/07/27 11:56:32;;;;;;;1.02;0.50;;;30.80;31.80;;;;;;5050993;28;20127;-66
2022/07/27 11:59:12;;;;;;;2.67;0.20;;;30.70;32.00;;;;;;5049673;28;20053;-66
2022/07/27 12:01:42;;;;;;;1.05;0.10;;;30.70;32.20;;;;;;5050345;28;20128;-65
2022/07/27 12:04:18;;;;;;;0.85;0.10;;;30.60;31.90;;;;;;5049636;28;20048;-65
2022/07/27 12:06:48;;;;;;;2.22;0.20;;;30.60;31.50;;;;;;5049871;28;20396;-61
2022/07/27 12:09:17;;;;;;;0.10;0.10;;;30.60;31.50;;;;;;5049995;28;20087;-66
2022/07/27 12:11:56;;;;;;;2.33;0.22;;;30.60;31.80;;;;;;5048608;28;20487;-65
2022/07/27 12:14:37;;;;;;;5.35;0.22;;;30.50;31.90;;;;;;5049602;28;20045;-66
2022/07/27 12:17:25;;;;;;;0.82;0.10;;;30.50;31.40;;;;;;5048691;28;20087;-65
2022/07/27 12:19:56;;;;;;;3.42;0.15;;;30.40;32.20;;;;;;5050241;28;20519;-65
2022/07/27 12:22:25;;;;;;;1.60;0.10;;;30.40;32.70;;;;;;5049878;28;20156;-66
2022/07/27 12:24:53;;;;;;;0.77;0.10;;;30.40;32.90;;;;;;5049839;28;20159;-65
2022/07/27 12:27:21;;;;;;;0.55;0.20;;;30.30;33.10;;;;;;5042564;28;20530;-66
2022/07/27 12:29:58;;;;;;;1.85;0.13;;;30.30;33.20;;;;;;5048974;28;20069;-65
2022/07/27 12:32:25;;;;;;;2.95;0.50;;;30.30;33.50;;;;;;5049820;28;20037;-65
2022/07/27 12:34:53;;;;;;;0.55;0.20;;;30.20;33.60;;;;;;5050133;28;20045;-65
2022/07/27 12:37:21;;;;;;;0.40;0.38;;;30.20;33.70;;;;;;5049593;28;20491;-65
2022/07/27 12:39:48;;;;;;;1.92;0.30;;;30.10;33.70;;;;;;5049561;28;20040;-65
2022/07/27 12:42:15;;;;;;;3.00;0.30;;;30.10;33.80;;;;;;5043171;28;20043;-65
2022/07/27 12:44:44;;;;;;;2.95;0.22;;;30.10;33.90;;;;;;5043108;28;20123;-65
2022/07/27 12:50:02;;;;;;;1.35;0.10;;;30.00;33.90;;;;;;5045546;28;20041;-66
2022/07/27 12:52:30;;;;;;;1.52;0.40;;;30.00;33.90;;;;;;5049213;28;20124;-65
2022/07/27 12:54:57;;;;;;;0.30;0.10;;;30.00;34.60;;;;;;5049166;28;20044;-65
2022/07/27 12:57:24;;;;;;;0.10;0.10;;;29.90;33.80;;;;;;5049078;28;20110;-65
2022/07/27 12:59:52;;;;;;;0.10;0.10;;;29.90;33.90;;;;;;5049434;28;20384;-66
2022/07/27 13:02:20;;;;;;;1.50;0.10;;;29.90;34.10;;;;;;5047491;28;20072;-66
2022/07/27 13:04:48;;;;;;;0.40;0.10;;;29.90;34.20;;;;;;5047566;28;20107;-67